Nearby METAR Reports

 

MWCR - Owen Roberts, Grand Cayman
Distance from station: NNE 3mi, 4km
Updated: 27/04/2017 11:00
Few Clouds
Few Clouds
 Wind from SE
Wind: SE 13 mph , 20 km/h
Temperature: 86°F , 30°C
Heat Index: 99°F , 37°C
Dew Point: 79°F , 26°C
Humidity: 79%
Barometer: 1013 hPa
Clouds: Few Clouds
Visibility: 6 miles , 10 km
Cloud details: Few Clouds 1800 ft
2017/04/27 16:00 MWCR 271600Z 13011KT 9999 FEW018 30/26 Q1013 NOSIG
MWCB - Gerrard Smith, Cayman Brac
Distance from station: ENE 102mi, 164km
Updated: 27/04/2017 11:00
Mostly cloudy
Mostly cloudy
 Wind from ESE
Wind: ESE 13 mph , 20 km/h
Temperature: 84°F , 29°C
Heat Index: 92°F , 33°C
Dew Point: 75°F , 24°C
Humidity: 74%
Barometer: 1014 hPa
Clouds: Mostly cloudy
Visibility: 6 miles , 10 km
Cloud details: Few Clouds 1600 ft
Mostly cloudy 3000 ft
2017/04/27 16:00 MWCB 271600Z 12011KT 9999 FEW016CB BKN030 29/24 Q1014
 
MUCL - Cayo Largo D Sur, Cuba
Distance from station: N 164mi, 264km
Updated: 27/04/2017 10:51
Partly cloudy
Partly cloudy
 Wind from ESE
Wind: ESE 16 mph , 26 km/h
Temperature: 86°F , 30°C
Heat Index: 93°F , 34°C
Dew Point: 73°F , 23°C
Humidity: 66%
Barometer: 1014 hPa
Clouds: Partly cloudy
Visibility: 6 miles , 9 km
Cloud details: Partly cloudy 2000 ft
2017/04/27 15:51 MUCL 271551Z 12014KT 9000 SCT020 30/23 Q1014
MUCF - Cienfuegos(Civ/M, Cuba
Distance from station: NNE 208mi, 335km
Updated: 27/04/2017 10:50
Mostly cloudy
Mostly cloudy
 Wind from SSW
Wind: SSW 14 mph , 22 km/h
Temperature: 88°F , 31°C
Heat Index: 98°F , 37°C
Dew Point: 75°F , 24°C
Humidity: 66%
Barometer: 1014 hPa
Clouds: Mostly cloudy
Visibility: 6 miles , 9 km
Cloud details: Mostly cloudy 2500 ft
2017/04/27 15:50 MUCF 271550Z 20012KT 170V230 9000 BKN025 31/24 Q1014
 
MKJS - Sangster/Montego Bay, Jamaica
Distance from station: ESE 233mi, 375km
Updated: 27/04/2017 11:00
Mostly cloudy
Mostly cloudy
 Wind from ENE
Wind: ENE 14 mph , 22 km/h
Temperature: 86°F , 30°C
Heat Index: 99°F , 37°C
Dew Point: 79°F , 26°C
Humidity: 79%
Barometer: 1013 hPa
Clouds: Mostly cloudy
Visibility: 6 miles , 10 km
Cloud details: Few Clouds 2200 ft
Mostly cloudy 3200 ft
2017/04/27 16:00 MKJS 271600Z 06012KT 9999 FEW022 BKN032 30/26 Q1013
MUSC - Santa Clara, Cuba
Distance from station: NNE 242mi, 389km
Updated: 27/04/2017 10:52
Mostly cloudy
Mostly cloudy
 Wind from ESE
Wind: ESE 14 mph , 22 km/h
Temperature: 88°F , 31°C
Heat Index: 95°F , 35°C
Dew Point: 72°F , 22°C
Humidity: 59%
Barometer: 1015 hPa
Clouds: Mostly cloudy
Visibility: 6 miles , 9 km
Cloud details: Mostly cloudy 2000 ft
2017/04/27 15:52 MUSC 271552Z 12012KT 9000 BKN020 31/22 Q1015
 
MUVR - Varadero, Cuba
Distance from station: N 260mi, 419km
Updated: 27/04/2017 10:50
Mostly cloudy
Mostly cloudy
 Wind from SSE
Wind: SSE 9 mph , 15 km/h
Temperature: 90°F , 32°C
Heat Index: 94°F , 34°C
Dew Point: 68°F , 20°C
Humidity: 49%
Barometer: 1014 hPa
Clouds: Mostly cloudy
Visibility: 6 miles , 9 km
Cloud details: Mostly cloudy 2000 ft
2017/04/27 15:50 MUVR 271550Z 16008KT 110V200 9000 BKN020 32/20 Q1014
MUHA - Havana/Jose Mar, Cuba
Distance from station: NNW 264mi, 425km
Updated: 27/04/2017 10:55
Mostly cloudy
Mostly cloudy
 Wind from S
Wind: S 8 mph , 13 km/h
Temperature: 86°F , 30°C
Heat Index: 89°F , 32°C
Dew Point: 68°F , 20°C
Humidity: 55%
Barometer: 1014 hPa
Clouds: Mostly cloudy
Visibility: 6 miles , 10 km
Cloud details: Mostly cloudy 2300 ft
2017/04/27 15:55 MUHA 271555Z 17007KT 130V200 9999 BKN023 30/20 Q1014
 
MUCM - Camaguey/Iganci, Cuba
Distance from station: NE 273mi, 439km
Updated: 27/04/2017 10:50
Mostly cloudy
Mostly cloudy
 Wind from NE
Wind: NE 10 mph , 17 km/h
Temperature: 84°F , 29°C
Heat Index: 89°F , 32°C
Dew Point: 72°F , 22°C
Humidity: 66%
Barometer: 1016 hPa
Clouds: Mostly cloudy
Visibility: 6 miles , 9 km
Cloud details: Partly cloudy 1800 ft
Mostly cloudy 8000 ft
2017/04/27 15:50 MUCM 271550Z 04009KT 010V070 9000 SCT018 BKN080 29/22 Q1016
MUMZ - Manzanillo, Cuba
Distance from station: ENE 287mi, 462km
Updated: 11/10/2016 09:50
NOT Current
Partly cloudy
Partly cloudy
 Wind from ENE
Wind: ENE 12 mph , 19 km/h
Temperature: 84°F , 29°C
Heat Index: 89°F , 32°C
Dew Point: 72°F , 22°C
Humidity: 66%
Barometer: 1014 hPa
Clouds: Partly cloudy
Visibility: 6 miles , 9 km
Cloud details: Partly cloudy 2000 ft
2016/10/11 14:50 MUMZ 111450Z 07010KT 9000 SCT020 29/22 Q1014
 
MUCC - Canagua, Cuba
Distance from station: NE 296mi, 476km
Updated: 27/04/2017 10:50
Mostly cloudy
Mostly cloudy
 Wind from E
Wind: E 17 mph , 28 km/h
Temperature: 82°F , 28°C
Heat Index: 87°F , 31°C
Dew Point: 73°F , 23°C
Humidity: 74%
Barometer: 1015 hPa
Clouds: Mostly cloudy
Visibility: 6 miles , 9 km
Cloud details: Partly cloudy 1800 ft
Mostly cloudy 3000 ft
2017/04/27 15:50 MUCC 271550Z 09015KT 070V130 9000 SCT018 BKN030 28/23 Q1015
MKJP - Kingston/Norman Manley, Jamaica
Distance from station: ESE 315mi, 507km
Updated: 27/04/2017 11:00
Few Clouds
Few Clouds
 Wind from SE
Wind: SE 20 mph , 31 km/h
Temperature: 86°F , 30°C
Heat Index: 97°F , 36°C
Dew Point: 77°F , 25°C
Humidity: 75%
Barometer: 1014 hPa
Clouds: Few Clouds
Visibility: 6 miles , 10 km
Cloud details: Few Clouds 2200 ft
Few Clouds 2400 ft
2017/04/27 16:00 MKJP 271600Z 14017KT 9999 FEW022 FEW024TCU 30/25 Q1014
 
MHPL - Puerto Lempira, Honduras
Distance from station: SSW 318mi, 513km
Updated: 27/04/2017 11:00
Partly cloudy
Partly cloudy
 Wind from S
Wind: S 12 mph , 19 km/h
Temperature: 88°F , 31°C
Heat Index: 98°F , 37°C
Dew Point: 75°F , 24°C
Humidity: 66%
Barometer: 1010 hPa
Clouds: Partly cloudy
Visibility: 6 miles , 10 km
Cloud details: Partly cloudy 2800 ft
2017/04/27 16:00 MHPL 271600Z 17010KT 9999 SCT028TCU 31/24 Q1010 TCU NE HZ
MUHG - Holguin (civ/Mil, Cuba
Distance from station: ENE 345mi, 555km
Updated: 27/04/2017 10:50
Mostly cloudy
Mostly cloudy
 Wind from S
Wind: S 7 mph , 11 km/h
Temperature: 86°F , 30°C
Heat Index: 89°F , 32°C
Dew Point: 68°F , 20°C
Humidity: 55%
Barometer: 1015 hPa
Clouds: Mostly cloudy
Visibility: 6 miles , 10 km
Cloud details: Partly cloudy 2500 ft
Mostly cloudy 25000 ft
2017/04/27 15:50 MUHG 271550Z 17006KT 9999 SCT025 BKN250 30/20 Q1015